sensor_id;sensor_type;location;lat;lon;timestamp;P1;durP1;ratioP1;P2;durP2;ratioP2
15261;SDS011;7733;51.554;13.590;2023-12-22T00:01:30;11.03;;;3.60;;
15261;SDS011;7733;51.554;13.590;2023-12-22T00:03:56;12.63;;;3.37;;
15261;SDS011;7733;51.554;13.590;2023-12-22T00:06:21;9.17;;;3.27;;
15261;SDS011;7733;51.554;13.590;2023-12-22T00:08:47;13.13;;;3.50;;
15261;SDS011;7733;51.554;13.590;2023-12-22T00:11:13;12.27;;;3.60;;
15261;SDS011;7733;51.554;13.590;2023-12-22T00:13:39;11.10;;;3.40;;
15261;SDS011;7733;51.554;13.590;2023-12-22T00:16:05;12.13;;;3.43;;
15261;SDS011;7733;51.554;13.590;2023-12-22T00:18:31;11.60;;;3.67;;
15261;SDS011;7733;51.554;13.590;2023-12-22T00:20:56;14.03;;;4.03;;
15261;SDS011;7733;51.554;13.590;2023-12-22T00:23:22;11.13;;;3.43;;
15261;SDS011;7733;51.554;13.590;2023-12-22T00:25:48;14.30;;;3.60;;
15261;SDS011;7733;51.554;13.590;2023-12-22T00:28:14;15.43;;;3.83;;
15261;SDS011;7733;51.554;13.590;2023-12-22T00:30:39;7.10;;;3.30;;
15261;SDS011;7733;51.554;13.590;2023-12-22T00:33:05;12.10;;;4.10;;
15261;SDS011;7733;51.554;13.590;2023-12-22T00:35:31;8.57;;;3.53;;
15261;SDS011;7733;51.554;13.590;2023-12-22T00:37:57;12.67;;;3.30;;
15261;SDS011;7733;51.554;13.590;2023-12-22T00:40:23;12.53;;;3.50;;
15261;SDS011;7733;51.554;13.590;2023-12-22T00:42:49;9.53;;;3.10;;
15261;SDS011;7733;51.554;13.590;2023-12-22T00:45:15;8.03;;;3.30;;
15261;SDS011;7733;51.554;13.590;2023-12-22T00:47:40;6.10;;;3.00;;
15261;SDS011;7733;51.554;13.590;2023-12-22T00:50:06;6.90;;;2.80;;
15261;SDS011;7733;51.554;13.590;2023-12-22T00:52:33;8.73;;;2.93;;
15261;SDS011;7733;51.554;13.590;2023-12-22T00:54:59;7.30;;;2.60;;
15261;SDS011;7733;51.554;13.590;2023-12-22T00:57:24;8.90;;;2.60;;
15261;SDS011;7733;51.554;13.590;2023-12-22T00:59:50;4.40;;;2.20;;
15261;SDS011;7733;51.554;13.590;2023-12-22T01:02:17;6.67;;;2.60;;
15261;SDS011;7733;51.554;13.590;2023-12-22T01:04:43;7.90;;;2.63;;
15261;SDS011;7733;51.554;13.590;2023-12-22T01:07:10;7.57;;;2.57;;
15261;SDS011;7733;51.554;13.590;2023-12-22T01:09:36;6.63;;;2.30;;
15261;SDS011;7733;51.554;13.590;2023-12-22T01:12:06;6.90;;;2.70;;
15261;SDS011;7733;51.554;13.590;2023-12-22T01:14:33;5.47;;;2.40;;
15261;SDS011;7733;51.554;13.590;2023-12-22T01:16:58;6.17;;;2.67;;
15261;SDS011;7733;51.554;13.590;2023-12-22T01:19:25;8.03;;;2.47;;
15261;SDS011;7733;51.554;13.590;2023-12-22T01:21:51;5.90;;;2.20;;
15261;SDS011;7733;51.554;13.590;2023-12-22T01:24:17;6.70;;;2.03;;
15261;SDS011;7733;51.554;13.590;2023-12-22T01:26:42;5.70;;;2.23;;
15261;SDS011;7733;51.554;13.590;2023-12-22T01:29:08;8.20;;;2.30;;
15261;SDS011;7733;51.554;13.590;2023-12-22T01:31:34;8.63;;;2.60;;
15261;SDS011;7733;51.554;13.590;2023-12-22T01:34:00;5.80;;;1.97;;
15261;SDS011;7733;51.554;13.590;2023-12-22T01:36:25;6.37;;;2.33;;
15261;SDS011;7733;51.554;13.590;2023-12-22T01:38:51;4.23;;;1.90;;
15261;SDS011;7733;51.554;13.590;2023-12-22T01:41:17;5.57;;;1.90;;
15261;SDS011;7733;51.554;13.590;2023-12-22T01:43:43;8.77;;;2.10;;
15261;SDS011;7733;51.554;13.590;2023-12-22T01:46:09;8.13;;;2.37;;
15261;SDS011;7733;51.554;13.590;2023-12-22T01:48:37;10.40;;;2.30;;
15261;SDS011;7733;51.554;13.590;2023-12-22T01:51:04;5.10;;;2.67;;
15261;SDS011;7733;51.554;13.590;2023-12-22T01:53:32;8.40;;;2.67;;
15261;SDS011;7733;51.554;13.590;2023-12-22T01:55:59;6.93;;;2.07;;
15261;SDS011;7733;51.554;13.590;2023-12-22T01:58:27;9.30;;;2.87;;
15261;SDS011;7733;51.554;13.590;2023-12-22T02:00:56;5.27;;;2.20;;
15261;SDS011;7733;51.554;13.590;2023-12-22T02:03:22;8.43;;;2.60;;
15261;SDS011;7733;51.554;13.590;2023-12-22T02:05:48;6.77;;;2.50;;
15261;SDS011;7733;51.554;13.590;2023-12-22T02:08:15;4.80;;;2.27;;
15261;SDS011;7733;51.554;13.590;2023-12-22T02:10:44;5.60;;;2.33;;
15261;SDS011;7733;51.554;13.590;2023-12-22T02:13:10;4.00;;;1.80;;
15261;SDS011;7733;51.554;13.590;2023-12-22T02:15:36;4.90;;;1.90;;
15261;SDS011;7733;51.554;13.590;2023-12-22T02:18:07;4.63;;;2.10;;
15261;SDS011;7733;51.554;13.590;2023-12-22T02:20:50;5.97;;;2.37;;
15261;SDS011;7733;51.554;13.590;2023-12-22T02:23:16;7.23;;;2.20;;
15261;SDS011;7733;51.554;13.590;2023-12-22T02:25:41;7.83;;;2.57;;
15261;SDS011;7733;51.554;13.590;2023-12-22T02:28:07;5.73;;;2.20;;
15261;SDS011;7733;51.554;13.590;2023-12-22T02:33:33;6.13;;;2.30;;
15261;SDS011;7733;51.554;13.590;2023-12-22T02:36:04;5.97;;;2.30;;
15261;SDS011;7733;51.554;13.590;2023-12-22T02:38:34;6.70;;;2.30;;
15261;SDS011;7733;51.554;13.590;2023-12-22T02:41:02;5.87;;;2.80;;
15261;SDS011;7733;51.554;13.590;2023-12-22T02:43:29;7.70;;;2.50;;
15261;SDS011;7733;51.554;13.590;2023-12-22T02:45:55;7.60;;;2.50;;
15261;SDS011;7733;51.554;13.590;2023-12-22T02:48:20;6.00;;;2.50;;
15261;SDS011;7733;51.554;13.590;2023-12-22T02:50:46;9.13;;;2.57;;
15261;SDS011;7733;51.554;13.590;2023-12-22T02:53:12;8.73;;;2.90;;
15261;SDS011;7733;51.554;13.590;2023-12-22T02:55:38;8.13;;;2.60;;
15261;SDS011;7733;51.554;13.590;2023-12-22T02:58:03;9.93;;;2.53;;
15261;SDS011;7733;51.554;13.590;2023-12-22T03:00:29;9.10;;;2.80;;
15261;SDS011;7733;51.554;13.590;2023-12-22T03:02:55;7.57;;;2.67;;
15261;SDS011;7733;51.554;13.590;2023-12-22T03:05:20;8.07;;;2.70;;
15261;SDS011;7733;51.554;13.590;2023-12-22T03:07:46;7.50;;;2.93;;
15261;SDS011;7733;51.554;13.590;2023-12-22T03:10:12;9.30;;;2.80;;
15261;SDS011;7733;51.554;13.590;2023-12-22T03:12:37;11.40;;;3.00;;
15261;SDS011;7733;51.554;13.590;2023-12-22T03:15:04;11.97;;;3.10;;
15261;SDS011;7733;51.554;13.590;2023-12-22T03:17:30;12.37;;;3.33;;
15261;SDS011;7733;51.554;13.590;2023-12-22T03:19:56;8.00;;;2.60;;
15261;SDS011;7733;51.554;13.590;2023-12-22T03:22:22;8.57;;;3.20;;
15261;SDS011;7733;51.554;13.590;2023-12-22T03:24:47;10.73;;;2.87;;
15261;SDS011;7733;51.554;13.590;2023-12-22T03:27:13;8.67;;;2.93;;
15261;SDS011;7733;51.554;13.590;2023-12-22T03:29:41;7.77;;;2.80;;
15261;SDS011;7733;51.554;13.590;2023-12-22T03:32:08;9.67;;;2.87;;
15261;SDS011;7733;51.554;13.590;2023-12-22T03:34:34;9.60;;;2.80;;
15261;SDS011;7733;51.554;13.590;2023-12-22T03:36:59;11.53;;;3.53;;
15261;SDS011;7733;51.554;13.590;2023-12-22T03:39:25;8.53;;;2.50;;
15261;SDS011;7733;51.554;13.590;2023-12-22T03:41:51;6.97;;;2.90;;
15261;SDS011;7733;51.554;13.590;2023-12-22T03:44:17;8.03;;;3.10;;
15261;SDS011;7733;51.554;13.590;2023-12-22T03:46:42;8.27;;;2.87;;
15261;SDS011;7733;51.554;13.590;2023-12-22T03:49:08;8.13;;;2.70;;
15261;SDS011;7733;51.554;13.590;2023-12-22T03:51:34;9.30;;;2.57;;
15261;SDS011;7733;51.554;13.590;2023-12-22T03:53:59;8.07;;;2.97;;
15261;SDS011;7733;51.554;13.590;2023-12-22T03:56:25;6.60;;;2.40;;
15261;SDS011;7733;51.554;13.590;2023-12-22T03:58:51;3.73;;;2.03;;
15261;SDS011;7733;51.554;13.590;2023-12-22T04:01:17;4.77;;;1.67;;
15261;SDS011;7733;51.554;13.590;2023-12-22T04:03:43;4.30;;;1.90;;
15261;SDS011;7733;51.554;13.590;2023-12-22T04:06:08;4.67;;;1.57;;
15261;SDS011;7733;51.554;13.590;2023-12-22T04:08:34;4.03;;;1.40;;
15261;SDS011;7733;51.554;13.590;2023-12-22T04:11:00;3.70;;;1.80;;
15261;SDS011;7733;51.554;13.590;2023-12-22T04:13:25;2.87;;;1.57;;
15261;SDS011;7733;51.554;13.590;2023-12-22T04:15:51;6.53;;;1.97;;
15261;SDS011;7733;51.554;13.590;2023-12-22T04:18:17;5.43;;;1.90;;
15261;SDS011;7733;51.554;13.590;2023-12-22T04:20:43;7.77;;;2.10;;
15261;SDS011;7733;51.554;13.590;2023-12-22T04:23:08;6.00;;;1.77;;
15261;SDS011;7733;51.554;13.590;2023-12-22T04:25:34;6.70;;;2.30;;
15261;SDS011;7733;51.554;13.590;2023-12-22T04:28:00;6.20;;;2.50;;
15261;SDS011;7733;51.554;13.590;2023-12-22T04:30:25;7.33;;;2.03;;
15261;SDS011;7733;51.554;13.590;2023-12-22T04:32:52;8.73;;;2.50;;
15261;SDS011;7733;51.554;13.590;2023-12-22T04:35:18;9.17;;;2.20;;
15261;SDS011;7733;51.554;13.590;2023-12-22T04:37:44;9.47;;;2.60;;
15261;SDS011;7733;51.554;13.590;2023-12-22T04:40:10;6.97;;;2.47;;
15261;SDS011;7733;51.554;13.590;2023-12-22T04:42:36;8.90;;;2.70;;
15261;SDS011;7733;51.554;13.590;2023-12-22T04:45:02;9.07;;;2.43;;
15261;SDS011;7733;51.554;13.590;2023-12-22T04:47:28;9.33;;;2.83;;
15261;SDS011;7733;51.554;13.590;2023-12-22T04:49:53;10.30;;;3.57;;
15261;SDS011;7733;51.554;13.590;2023-12-22T04:52:19;9.73;;;3.10;;
15261;SDS011;7733;51.554;13.590;2023-12-22T04:54:45;8.73;;;2.63;;
15261;SDS011;7733;51.554;13.590;2023-12-22T04:57:10;10.53;;;3.00;;
15261;SDS011;7733;51.554;13.590;2023-12-22T04:59:36;9.80;;;3.47;;
15261;SDS011;7733;51.554;13.590;2023-12-22T05:02:02;8.73;;;2.80;;
15261;SDS011;7733;51.554;13.590;2023-12-22T05:04:28;10.33;;;4.60;;
15261;SDS011;7733;51.554;13.590;2023-12-22T05:06:54;8.47;;;2.90;;
15261;SDS011;7733;51.554;13.590;2023-12-22T05:09:20;10.80;;;3.77;;
15261;SDS011;7733;51.554;13.590;2023-12-22T05:11:47;13.20;;;2.60;;
15261;SDS011;7733;51.554;13.590;2023-12-22T05:14:13;6.93;;;2.50;;
15261;SDS011;7733;51.554;13.590;2023-12-22T05:16:38;5.67;;;2.10;;
15261;SDS011;7733;51.554;13.590;2023-12-22T05:19:04;8.60;;;2.50;;
15261;SDS011;7733;51.554;13.590;2023-12-22T05:21:30;10.17;;;3.33;;
15261;SDS011;7733;51.554;13.590;2023-12-22T05:23:56;11.53;;;3.40;;
15261;SDS011;7733;51.554;13.590;2023-12-22T05:26:21;8.87;;;2.70;;
15261;SDS011;7733;51.554;13.590;2023-12-22T05:28:48;7.37;;;2.33;;
15261;SDS011;7733;51.554;13.590;2023-12-22T05:31:15;7.67;;;3.00;;
15261;SDS011;7733;51.554;13.590;2023-12-22T05:33:41;7.50;;;2.60;;
15261;SDS011;7733;51.554;13.590;2023-12-22T05:36:08;7.13;;;2.07;;
15261;SDS011;7733;51.554;13.590;2023-12-22T05:38:40;7.33;;;2.83;;
15261;SDS011;7733;51.554;13.590;2023-12-22T05:41:06;6.97;;;2.57;;
15261;SDS011;7733;51.554;13.590;2023-12-22T05:43:32;5.47;;;1.93;;
15261;SDS011;7733;51.554;13.590;2023-12-22T05:45:58;5.80;;;2.03;;
15261;SDS011;7733;51.554;13.590;2023-12-22T05:48:25;4.03;;;1.73;;
15261;SDS011;7733;51.554;13.590;2023-12-22T05:50:52;7.97;;;2.07;;
15261;SDS011;7733;51.554;13.590;2023-12-22T05:53:21;5.43;;;1.77;;
15261;SDS011;7733;51.554;13.590;2023-12-22T05:55:47;4.47;;;1.77;;
15261;SDS011;7733;51.554;13.590;2023-12-22T05:58:13;4.43;;;1.83;;
15261;SDS011;7733;51.554;13.590;2023-12-22T06:00:39;3.70;;;1.50;;
15261;SDS011;7733;51.554;13.590;2023-12-22T06:03:05;4.37;;;1.60;;
15261;SDS011;7733;51.554;13.590;2023-12-22T06:05:30;3.33;;;1.60;;
15261;SDS011;7733;51.554;13.590;2023-12-22T06:07:56;3.13;;;1.33;;
15261;SDS011;7733;51.554;13.590;2023-12-22T06:10:22;4.40;;;1.70;;
15261;SDS011;7733;51.554;13.590;2023-12-22T06:12:48;3.40;;;1.47;;
15261;SDS011;7733;51.554;13.590;2023-12-22T06:15:13;4.10;;;1.60;;
15261;SDS011;7733;51.554;13.590;2023-12-22T06:17:39;4.30;;;1.80;;
15261;SDS011;7733;51.554;13.590;2023-12-22T06:20:05;4.17;;;1.70;;
15261;SDS011;7733;51.554;13.590;2023-12-22T06:22:31;3.70;;;1.57;;
15261;SDS011;7733;51.554;13.590;2023-12-22T06:24:57;6.57;;;1.73;;
15261;SDS011;7733;51.554;13.590;2023-12-22T06:27:23;5.53;;;1.80;;
15261;SDS011;7733;51.554;13.590;2023-12-22T06:29:50;6.10;;;1.90;;
15261;SDS011;7733;51.554;13.590;2023-12-22T06:32:16;3.70;;;1.90;;
15261;SDS011;7733;51.554;13.590;2023-12-22T06:34:42;7.00;;;1.73;;
15261;SDS011;7733;51.554;13.590;2023-12-22T06:37:08;4.53;;;2.00;;
15261;SDS011;7733;51.554;13.590;2023-12-22T06:39:35;5.33;;;1.90;;
15261;SDS011;7733;51.554;13.590;2023-12-22T06:42:01;4.67;;;1.63;;
15261;SDS011;7733;51.554;13.590;2023-12-22T06:44:28;6.60;;;2.40;;
15261;SDS011;7733;51.554;13.590;2023-12-22T06:46:56;7.40;;;2.00;;
15261;SDS011;7733;51.554;13.590;2023-12-22T06:49:22;5.67;;;2.37;;
15261;SDS011;7733;51.554;13.590;2023-12-22T06:51:47;7.33;;;2.50;;
15261;SDS011;7733;51.554;13.590;2023-12-22T06:54:13;7.43;;;2.20;;
15261;SDS011;7733;51.554;13.590;2023-12-22T06:56:39;8.47;;;2.50;;
15261;SDS011;7733;51.554;13.590;2023-12-22T06:59:05;6.60;;;2.10;;
15261;SDS011;7733;51.554;13.590;2023-12-22T07:01:32;10.30;;;2.93;;
15261;SDS011;7733;51.554;13.590;2023-12-22T07:04:00;6.03;;;2.73;;
15261;SDS011;7733;51.554;13.590;2023-12-22T07:06:29;7.67;;;3.00;;
15261;SDS011;7733;51.554;13.590;2023-12-22T07:11:47;9.07;;;2.50;;
15261;SDS011;7733;51.554;13.590;2023-12-22T07:14:18;11.47;;;2.93;;
15261;SDS011;7733;51.554;13.590;2023-12-22T07:16:44;6.90;;;2.37;;
15261;SDS011;7733;51.554;13.590;2023-12-22T07:19:09;6.73;;;2.70;;
15261;SDS011;7733;51.554;13.590;2023-12-22T07:21:38;8.63;;;2.43;;
15261;SDS011;7733;51.554;13.590;2023-12-22T07:24:05;9.97;;;2.60;;
15261;SDS011;7733;51.554;13.590;2023-12-22T07:26:32;8.73;;;2.60;;
15261;SDS011;7733;51.554;13.590;2023-12-22T07:28:58;17.37;;;10.63;;
15261;SDS011;7733;51.554;13.590;2023-12-22T07:31:24;6.80;;;2.40;;
15261;SDS011;7733;51.554;13.590;2023-12-22T07:33:50;4.90;;;2.03;;
15261;SDS011;7733;51.554;13.590;2023-12-22T07:36:16;7.93;;;2.07;;
15261;SDS011;7733;51.554;13.590;2023-12-22T07:38:46;4.37;;;1.70;;
15261;SDS011;7733;51.554;13.590;2023-12-22T07:41:12;3.10;;;1.80;;
15261;SDS011;7733;51.554;13.590;2023-12-22T07:43:40;3.53;;;3.23;;
15261;SDS011;7733;51.554;13.590;2023-12-22T07:46:07;2.63;;;1.83;;
15261;SDS011;7733;51.554;13.590;2023-12-22T07:48:34;4.67;;;1.60;;
15261;SDS011;7733;51.554;13.590;2023-12-22T07:51:00;5.27;;;2.43;;
15261;SDS011;7733;51.554;13.590;2023-12-22T07:53:25;5.03;;;2.03;;
15261;SDS011;7733;51.554;13.590;2023-12-22T07:55:51;5.17;;;2.60;;
15261;SDS011;7733;51.554;13.590;2023-12-22T07:58:17;7.30;;;2.70;;
15261;SDS011;7733;51.554;13.590;2023-12-22T08:00:44;3.93;;;2.20;;
15261;SDS011;7733;51.554;13.590;2023-12-22T08:03:11;5.33;;;2.40;;
15261;SDS011;7733;51.554;13.590;2023-12-22T08:05:36;5.33;;;2.80;;
15261;SDS011;7733;51.554;13.590;2023-12-22T08:08:02;5.83;;;1.80;;
15261;SDS011;7733;51.554;13.590;2023-12-22T08:10:28;3.40;;;1.70;;
15261;SDS011;7733;51.554;13.590;2023-12-22T08:12:54;3.40;;;1.80;;
15261;SDS011;7733;51.554;13.590;2023-12-22T08:15:20;3.67;;;1.53;;
15261;SDS011;7733;51.554;13.590;2023-12-22T08:17:49;2.73;;;1.50;;
15261;SDS011;7733;51.554;13.590;2023-12-22T08:20:19;3.00;;;1.67;;
15261;SDS011;7733;51.554;13.590;2023-12-22T08:22:46;3.27;;;1.10;;
15261;SDS011;7733;51.554;13.590;2023-12-22T08:25:13;1.20;;;0.80;;
15261;SDS011;7733;51.554;13.590;2023-12-22T08:27:40;2.27;;;0.87;;
15261;SDS011;7733;51.554;13.590;2023-12-22T08:30:07;1.63;;;0.90;;
15261;SDS011;7733;51.554;13.590;2023-12-22T08:32:34;1.47;;;0.70;;
15261;SDS011;7733;51.554;13.590;2023-12-22T08:35:00;1.50;;;0.77;;
15261;SDS011;7733;51.554;13.590;2023-12-22T08:37:26;0.90;;;0.50;;
15261;SDS011;7733;51.554;13.590;2023-12-22T08:39:51;1.20;;;1.10;;
15261;SDS011;7733;51.554;13.590;2023-12-22T08:42:17;1.23;;;0.57;;
15261;SDS011;7733;51.554;13.590;2023-12-22T08:44:43;0.40;;;0.40;;
15261;SDS011;7733;51.554;13.590;2023-12-22T08:47:09;1.57;;;0.60;;
15261;SDS011;7733;51.554;13.590;2023-12-22T08:49:35;0.93;;;0.57;;
15261;SDS011;7733;51.554;13.590;2023-12-22T08:52:01;1.57;;;0.70;;
15261;SDS011;7733;51.554;13.590;2023-12-22T08:54:28;1.13;;;1.00;;
15261;SDS011;7733;51.554;13.590;2023-12-22T08:56:55;1.73;;;1.07;;
15261;SDS011;7733;51.554;13.590;2023-12-22T08:59:21;2.70;;;1.83;;
15261;SDS011;7733;51.554;13.590;2023-12-22T09:01:47;2.17;;;1.33;;
15261;SDS011;7733;51.554;13.590;2023-12-22T09:04:13;1.47;;;1.20;;
15261;SDS011;7733;51.554;13.590;2023-12-22T09:06:40;2.00;;;0.80;;
15261;SDS011;7733;51.554;13.590;2023-12-22T09:09:05;1.70;;;1.00;;
15261;SDS011;7733;51.554;13.590;2023-12-22T09:11:32;2.93;;;1.00;;
15261;SDS011;7733;51.554;13.590;2023-12-22T09:13:59;1.73;;;1.03;;
15261;SDS011;7733;51.554;13.590;2023-12-22T09:16:24;1.43;;;1.00;;
15261;SDS011;7733;51.554;13.590;2023-12-22T09:18:50;1.77;;;1.10;;
15261;SDS011;7733;51.554;13.590;2023-12-22T09:21:17;2.67;;;1.40;;
15261;SDS011;7733;51.554;13.590;2023-12-22T09:23:44;3.47;;;1.37;;
15261;SDS011;7733;51.554;13.590;2023-12-22T09:26:14;2.47;;;1.27;;
15261;SDS011;7733;51.554;13.590;2023-12-22T09:28:41;3.27;;;1.50;;
15261;SDS011;7733;51.554;13.590;2023-12-22T09:31:07;1.50;;;1.40;;
15261;SDS011;7733;51.554;13.590;2023-12-22T09:33:34;2.67;;;1.53;;
15261;SDS011;7733;51.554;13.590;2023-12-22T09:36:00;4.80;;;1.60;;
15261;SDS011;7733;51.554;13.590;2023-12-22T09:38:26;4.03;;;1.70;;
15261;SDS011;7733;51.554;13.590;2023-12-22T09:40:53;3.53;;;1.60;;
15261;SDS011;7733;51.554;13.590;2023-12-22T09:43:19;4.07;;;1.90;;
15261;SDS011;7733;51.554;13.590;2023-12-22T09:45:45;2.47;;;1.30;;
15261;SDS011;7733;51.554;13.590;2023-12-22T09:48:12;16.67;;;1.40;;
15261;SDS011;7733;51.554;13.590;2023-12-22T09:50:46;2.60;;;1.13;;
15261;SDS011;7733;51.554;13.590;2023-12-22T09:53:12;5.20;;;2.00;;
15261;SDS011;7733;51.554;13.590;2023-12-22T09:55:42;3.17;;;1.67;;
15261;SDS011;7733;51.554;13.590;2023-12-22T09:58:12;3.97;;;1.40;;
15261;SDS011;7733;51.554;13.590;2023-12-22T10:00:40;2.50;;;1.27;;
15261;SDS011;7733;51.554;13.590;2023-12-22T10:03:07;4.10;;;2.67;;
15261;SDS011;7733;51.554;13.590;2023-12-22T10:05:35;4.63;;;1.20;;
15261;SDS011;7733;51.554;13.590;2023-12-22T10:08:02;2.93;;;0.80;;
15261;SDS011;7733;51.554;13.590;2023-12-22T10:10:29;1.53;;;0.87;;
15261;SDS011;7733;51.554;13.590;2023-12-22T10:12:55;2.63;;;0.97;;
15261;SDS011;7733;51.554;13.590;2023-12-22T10:15:23;2.10;;;1.10;;
15261;SDS011;7733;51.554;13.590;2023-12-22T10:17:50;2.60;;;1.13;;
15261;SDS011;7733;51.554;13.590;2023-12-22T10:20:17;2.67;;;1.20;;
15261;SDS011;7733;51.554;13.590;2023-12-22T10:22:43;2.93;;;0.93;;
15261;SDS011;7733;51.554;13.590;2023-12-22T10:25:09;1.13;;;1.00;;
15261;SDS011;7733;51.554;13.590;2023-12-22T10:27:38;2.30;;;1.10;;
15261;SDS011;7733;51.554;13.590;2023-12-22T10:30:07;4.33;;;1.93;;
15261;SDS011;7733;51.554;13.590;2023-12-22T10:32:35;3.13;;;1.80;;
15261;SDS011;7733;51.554;13.590;2023-12-22T10:35:08;3.40;;;1.67;;
15261;SDS011;7733;51.554;13.590;2023-12-22T10:37:34;3.87;;;1.60;;
15261;SDS011;7733;51.554;13.590;2023-12-22T10:40:03;2.93;;;1.03;;
15261;SDS011;7733;51.554;13.590;2023-12-22T10:42:31;2.27;;;1.90;;
15261;SDS011;7733;51.554;13.590;2023-12-22T10:44:57;5.17;;;1.67;;
15261;SDS011;7733;51.554;13.590;2023-12-22T10:47:23;5.17;;;1.40;;
15261;SDS011;7733;51.554;13.590;2023-12-22T10:49:49;5.93;;;2.10;;
15261;SDS011;7733;51.554;13.590;2023-12-22T10:52:16;3.37;;;1.30;;
15261;SDS011;7733;51.554;13.590;2023-12-22T10:54:43;4.63;;;1.37;;
15261;SDS011;7733;51.554;13.590;2023-12-22T10:57:10;3.40;;;1.40;;
15261;SDS011;7733;51.554;13.590;2023-12-22T10:59:39;4.70;;;1.50;;
15261;SDS011;7733;51.554;13.590;2023-12-22T11:02:12;2.90;;;1.43;;
15261;SDS011;7733;51.554;13.590;2023-12-22T11:04:45;3.87;;;1.43;;
15261;SDS011;7733;51.554;13.590;2023-12-22T11:07:35;2.97;;;1.07;;
15261;SDS011;7733;51.554;13.590;2023-12-22T11:10:06;2.93;;;1.20;;
15261;SDS011;7733;51.554;13.590;2023-12-22T11:12:36;4.47;;;1.27;;
15261;SDS011;7733;51.554;13.590;2023-12-22T11:15:03;5.47;;;1.37;;
15261;SDS011;7733;51.554;13.590;2023-12-22T11:17:34;3.37;;;1.10;;
15261;SDS011;7733;51.554;13.590;2023-12-22T11:20:05;2.37;;;1.20;;
15261;SDS011;7733;51.554;13.590;2023-12-22T11:22:37;4.00;;;1.30;;
15261;SDS011;7733;51.554;13.590;2023-12-22T11:25:05;3.77;;;1.20;;
15261;SDS011;7733;51.554;13.590;2023-12-22T11:27:33;1.37;;;0.70;;
15261;SDS011;7733;51.554;13.590;2023-12-22T11:30:02;2.97;;;1.70;;
15261;SDS011;7733;51.554;13.590;2023-12-22T11:32:33;0.97;;;0.63;;
15261;SDS011;7733;51.554;13.590;2023-12-22T11:35:00;1.27;;;0.80;;
15261;SDS011;7733;51.554;13.590;2023-12-22T11:37:27;0.93;;;0.63;;
15261;SDS011;7733;51.554;13.590;2023-12-22T11:39:57;1.70;;;0.60;;
15261;SDS011;7733;51.554;13.590;2023-12-22T11:42:24;0.57;;;0.40;;
15261;SDS011;7733;51.554;13.590;2023-12-22T11:45:01;0.43;;;0.30;;
15261;SDS011;7733;51.554;13.590;2023-12-22T11:47:28;0.77;;;0.63;;
15261;SDS011;7733;51.554;13.590;2023-12-22T11:49:54;0.40;;;0.23;;
15261;SDS011;7733;51.554;13.590;2023-12-22T11:52:25;1.60;;;0.60;;
15261;SDS011;7733;51.554;13.590;2023-12-22T11:54:53;2.17;;;1.10;;
15261;SDS011;7733;51.554;13.590;2023-12-22T11:57:29;1.97;;;0.83;;
15261;SDS011;7733;51.554;13.590;2023-12-22T12:00:06;2.27;;;1.00;;
15261;SDS011;7733;51.554;13.590;2023-12-22T12:02:53;3.33;;;1.30;;
15261;SDS011;7733;51.554;13.590;2023-12-22T12:05:20;5.20;;;1.13;;
15261;SDS011;7733;51.554;13.590;2023-12-22T12:07:47;1.27;;;0.93;;
15261;SDS011;7733;51.554;13.590;2023-12-22T12:13:08;3.70;;;1.80;;
15261;SDS011;7733;51.554;13.590;2023-12-22T12:15:40;2.20;;;1.60;;
15261;SDS011;7733;51.554;13.590;2023-12-22T12:18:07;4.73;;;1.90;;
15261;SDS011;7733;51.554;13.590;2023-12-22T12:20:34;4.70;;;1.97;;
15261;SDS011;7733;51.554;13.590;2023-12-22T12:23:00;3.37;;;2.00;;
15261;SDS011;7733;51.554;13.590;2023-12-22T12:25:31;5.73;;;3.53;;
15261;SDS011;7733;51.554;13.590;2023-12-22T12:28:01;5.03;;;2.00;;
15261;SDS011;7733;51.554;13.590;2023-12-22T12:30:31;5.93;;;2.00;;
15261;SDS011;7733;51.554;13.590;2023-12-22T12:32:58;5.37;;;1.67;;
15261;SDS011;7733;51.554;13.590;2023-12-22T12:35:32;3.00;;;1.87;;
15261;SDS011;7733;51.554;13.590;2023-12-22T12:37:59;5.23;;;2.07;;
15261;SDS011;7733;51.554;13.590;2023-12-22T12:40:25;6.13;;;1.87;;
15261;SDS011;7733;51.554;13.590;2023-12-22T12:42:57;6.93;;;2.20;;
15261;SDS011;7733;51.554;13.590;2023-12-22T12:45:24;8.07;;;2.43;;
15261;SDS011;7733;51.554;13.590;2023-12-22T12:48:00;8.13;;;2.10;;
15261;SDS011;7733;51.554;13.590;2023-12-22T12:50:28;5.43;;;2.10;;
15261;SDS011;7733;51.554;13.590;2023-12-22T12:52:56;4.50;;;2.00;;
15261;SDS011;7733;51.554;13.590;2023-12-22T12:55:23;4.00;;;1.80;;
15261;SDS011;7733;51.554;13.590;2023-12-22T12:57:50;6.63;;;1.90;;
15261;SDS011;7733;51.554;13.590;2023-12-22T13:00:27;4.73;;;1.90;;
15261;SDS011;7733;51.554;13.590;2023-12-22T13:03:01;5.97;;;2.10;;
15261;SDS011;7733;51.554;13.590;2023-12-22T13:05:34;3.40;;;1.63;;
15261;SDS011;7733;51.554;13.590;2023-12-22T13:08:33;4.87;;;1.97;;
15261;SDS011;7733;51.554;13.590;2023-12-22T13:10:59;3.93;;;1.70;;
15261;SDS011;7733;51.554;13.590;2023-12-22T13:13:26;4.80;;;1.87;;
15261;SDS011;7733;51.554;13.590;2023-12-22T13:15:52;2.80;;;1.50;;
15261;SDS011;7733;51.554;13.590;2023-12-22T13:18:18;2.60;;;1.30;;
15261;SDS011;7733;51.554;13.590;2023-12-22T13:20:44;3.73;;;1.60;;
15261;SDS011;7733;51.554;13.590;2023-12-22T13:23:10;4.90;;;1.90;;
15261;SDS011;7733;51.554;13.590;2023-12-22T13:25:41;3.90;;;1.70;;
15261;SDS011;7733;51.554;13.590;2023-12-22T13:28:07;4.17;;;1.33;;
15261;SDS011;7733;51.554;13.590;2023-12-22T13:30:36;2.93;;;1.33;;
15261;SDS011;7733;51.554;13.590;2023-12-22T13:33:06;4.30;;;2.10;;
15261;SDS011;7733;51.554;13.590;2023-12-22T13:35:33;1.90;;;0.80;;
15261;SDS011;7733;51.554;13.590;2023-12-22T13:38:06;2.87;;;0.93;;
15261;SDS011;7733;51.554;13.590;2023-12-22T13:40:32;0.93;;;0.93;;
15261;SDS011;7733;51.554;13.590;2023-12-22T13:43:00;1.30;;;0.70;;
15261;SDS011;7733;51.554;13.590;2023-12-22T13:45:27;1.30;;;0.70;;
15261;SDS011;7733;51.554;13.590;2023-12-22T13:47:53;1.03;;;0.97;;
15261;SDS011;7733;51.554;13.590;2023-12-22T13:50:19;1.80;;;0.90;;
15261;SDS011;7733;51.554;13.590;2023-12-22T13:52:48;1.77;;;0.60;;
15261;SDS011;7733;51.554;13.590;2023-12-22T13:55:16;1.37;;;0.97;;
15261;SDS011;7733;51.554;13.590;2023-12-22T13:57:44;0.97;;;0.70;;
15261;SDS011;7733;51.554;13.590;2023-12-22T14:02:45;1.23;;;0.60;;
15261;SDS011;7733;51.554;13.590;2023-12-22T14:05:14;3.67;;;0.97;;
15261;SDS011;7733;51.554;13.590;2023-12-22T14:07:40;1.97;;;0.80;;
15261;SDS011;7733;51.554;13.590;2023-12-22T14:10:08;1.33;;;1.03;;
15261;SDS011;7733;51.554;13.590;2023-12-22T14:12:35;1.80;;;0.80;;
15261;SDS011;7733;51.554;13.590;2023-12-22T14:15:03;4.50;;;1.30;;
15261;SDS011;7733;51.554;13.590;2023-12-22T14:17:32;1.83;;;0.93;;
15261;SDS011;7733;51.554;13.590;2023-12-22T14:19:58;2.63;;;1.20;;
15261;SDS011;7733;51.554;13.590;2023-12-22T14:22:24;1.50;;;0.90;;
15261;SDS011;7733;51.554;13.590;2023-12-22T14:24:49;3.13;;;1.00;;
15261;SDS011;7733;51.554;13.590;2023-12-22T14:27:15;2.27;;;0.80;;
15261;SDS011;7733;51.554;13.590;2023-12-22T14:29:43;0.83;;;0.67;;
15261;SDS011;7733;51.554;13.590;2023-12-22T14:32:09;2.30;;;1.30;;
15261;SDS011;7733;51.554;13.590;2023-12-22T14:34:40;2.87;;;0.80;;
15261;SDS011;7733;51.554;13.590;2023-12-22T14:37:06;2.87;;;1.63;;
15261;SDS011;7733;51.554;13.590;2023-12-22T14:39:32;2.97;;;2.10;;
15261;SDS011;7733;51.554;13.590;2023-12-22T14:41:58;3.80;;;3.40;;
15261;SDS011;7733;51.554;13.590;2023-12-22T14:44:24;3.73;;;2.37;;
15261;SDS011;7733;51.554;13.590;2023-12-22T14:46:50;4.20;;;2.77;;
15261;SDS011;7733;51.554;13.590;2023-12-22T14:49:16;4.53;;;3.30;;
15261;SDS011;7733;51.554;13.590;2023-12-22T14:51:43;3.37;;;3.07;;
15261;SDS011;7733;51.554;13.590;2023-12-22T14:54:08;4.77;;;3.87;;
15261;SDS011;7733;51.554;13.590;2023-12-22T14:56:38;2.63;;;2.43;;